Time;durP1;ratioP1;P1;durP2;ratioP2;P2;SDS_P1;SDS_P2;PMS_P1;PMS_P2;Temp;Humidity;BMP_temperature;BMP_pressure;BME280_temperature;BME280_humidity;BME280_pressure;Samples;Min_cycle;Max_cycle;Signal;HPM_P1;HPM_P2
2022/11/06 00:00:55;;;;;;;203.95;50.72;;;5.50;99.90;;;4.37;100.00;97752.16;5051818;28;20490;-72
2022/11/06 00:03:23;;;;;;;192.68;48.15;;;5.60;99.90;;;4.36;100.00;97747.16;5050835;28;20412;-72
2022/11/06 00:08:37;;;;;;;169.93;46.42;;;5.50;99.90;;;4.29;100.00;97741.88;5051865;28;20436;-72
2022/11/06 00:11:09;;;;;;;167.52;43.25;;;5.50;99.90;;;4.23;100.00;97743.50;5049692;28;20498;-72
2022/11/06 00:13:36;;;;;;;177.00;44.40;;;5.50;99.90;;;4.23;100.00;97740.88;5030829;28;20453;-72
2022/11/06 00:16:03;;;;;;;188.68;47.88;;;5.50;99.90;;;4.25;100.00;97732.84;5031452;28;20782;-72
2022/11/06 00:18:31;;;;;;;166.45;45.78;;;5.40;99.90;;;4.20;100.00;97728.22;5031652;28;20459;-72
2022/11/06 00:20:57;;;;;;;158.93;43.63;;;5.40;99.90;;;4.18;100.00;97722.34;5031802;28;20512;-72
2022/11/06 00:23:23;;;;;;;157.52;45.22;;;5.40;99.90;;;4.17;100.00;97718.13;5030672;28;20395;-71
2022/11/06 00:25:54;;;;;;;162.40;43.45;;;5.40;99.90;;;4.14;100.00;97729.00;5031470;28;20473;-72
2022/11/06 00:28:20;;;;;;;150.15;41.60;;;5.40;99.90;;;4.11;100.00;97732.03;5031493;28;20786;-72
2022/11/06 00:30:46;;;;;;;179.87;47.10;;;5.30;99.90;;;4.10;100.00;97735.66;5031509;28;20407;-72
2022/11/06 00:33:12;;;;;;;176.77;44.83;;;5.30;99.90;;;4.05;100.00;97735.47;5030592;28;20885;-71
2022/11/06 00:35:39;;;;;;;114.77;37.87;;;5.30;99.90;;;4.16;100.00;97742.69;5031393;28;20438;-72
2022/11/06 00:38:06;;;;;;;177.80;46.28;;;5.30;99.90;;;4.12;100.00;97738.88;5031286;28;20521;-71
2022/11/06 00:40:32;;;;;;;177.48;45.38;;;5.30;99.90;;;4.03;100.00;97734.03;5031241;28;20414;-71
2022/11/06 00:42:58;;;;;;;172.70;45.30;;;5.30;99.90;;;4.03;100.00;97736.66;5030369;28;20419;-72
2022/11/06 00:45:24;;;;;;;161.20;42.85;;;5.20;99.90;;;4.03;100.00;97741.91;5030941;28;20901;-72
2022/11/06 00:47:50;;;;;;;167.07;46.03;;;5.20;99.90;;;4.04;100.00;97739.09;5031126;28;20449;-71
2022/11/06 00:50:17;;;;;;;165.82;44.42;;;5.30;99.90;;;4.06;100.00;97744.91;5030097;28;20474;-71
2022/11/06 00:52:44;;;;;;;187.75;47.65;;;5.30;99.90;;;4.07;100.00;97754.38;5030246;28;20395;-71
2022/11/06 00:55:10;;;;;;;182.07;46.90;;;5.30;99.90;;;4.08;100.00;97758.63;5030884;28;20427;-71
2022/11/06 00:57:36;;;;;;;180.15;45.35;;;5.30;99.90;;;4.04;100.00;97754.81;5030962;28;20399;-71
2022/11/06 01:00:04;;;;;;;181.10;49.25;;;5.30;99.90;;;4.11;100.00;97746.94;5030805;28;20907;-71
2022/11/06 01:02:30;;;;;;;184.40;48.88;;;5.30;99.90;;;4.09;100.00;97747.13;5031091;28;20417;-72
2022/11/06 01:04:56;;;;;;;173.15;46.40;;;5.30;99.90;;;4.09;100.00;97743.72;5029994;28;20425;-71
2022/11/06 01:07:22;;;;;;;149.30;43.75;;;5.30;99.90;;;4.08;100.00;97748.13;5030743;28;20486;-71
2022/11/06 01:09:50;;;;;;;161.68;42.38;;;5.30;99.90;;;4.09;100.00;97741.91;5030172;28;20431;-72
2022/11/06 01:12:15;;;;;;;131.82;40.47;;;5.30;99.90;;;4.12;100.00;97744.13;5030719;28;20893;-71
2022/11/06 01:14:43;;;;;;;183.77;46.15;;;5.30;99.90;;;4.08;100.00;97749.94;5029410;28;20403;-72
2022/11/06 01:17:09;;;;;;;154.70;40.00;;;5.30;99.90;;;4.00;100.00;97737.84;5030631;28;20801;-71
2022/11/06 01:19:35;;;;;;;148.80;39.40;;;5.30;99.90;;;3.94;100.00;97741.28;5030542;28;20954;-71
2022/11/06 01:22:01;;;;;;;155.02;40.05;;;5.20;99.90;;;3.92;100.00;97745.91;5030303;28;20419;-71
2022/11/06 01:24:28;;;;;;;166.27;43.33;;;5.20;99.90;;;3.88;100.00;97736.84;5029565;28;20513;-71
2022/11/06 01:26:56;;;;;;;162.82;40.33;;;5.20;99.90;;;3.86;100.00;97736.22;5030288;28;20403;-71
2022/11/06 01:29:21;;;;;;;128.43;37.30;;;5.10;99.90;;;3.84;100.00;97733.81;5030280;28;20392;-71
2022/11/06 01:31:51;;;;;;;179.13;44.27;;;5.10;99.90;;;3.80;100.00;97737.84;5030298;28;20441;-71
2022/11/06 01:34:17;;;;;;;133.57;37.63;;;5.10;99.90;;;3.76;100.00;97739.22;5029380;28;20403;-71
2022/11/06 01:36:45;;;;;;;142.70;39.05;;;5.00;99.90;;;3.76;100.00;97746.31;5029816;28;20874;-71
2022/11/06 01:39:13;;;;;;;149.90;40.17;;;5.00;99.90;;;3.74;100.00;97743.88;5030230;28;20430;-71
2022/11/06 01:41:42;;;;;;;146.30;39.60;;;5.00;99.90;;;3.72;100.00;97745.88;5030051;28;20416;-71
2022/11/06 01:45:14;;;;;;;157.00;41.97;;;5.00;99.90;;;3.74;100.00;97735.22;5029092;28;20448;-71
2022/11/06 01:47:42;;;;;;;153.65;40.63;;;5.00;99.90;;;3.74;100.00;97740.47;5016961;28;25116;-71
2022/11/06 01:50:11;;;;;;;180.30;43.92;;;5.00;99.90;;;3.73;100.00;97746.69;5030048;28;20493;-71
2022/11/06 01:52:37;;;;;;;182.70;42.45;;;5.00;99.90;;;3.70;100.00;97734.78;5029679;28;20413;-71
2022/11/06 01:55:11;;;;;;;155.82;38.28;;;5.00;99.90;;;3.67;100.00;97735.22;5044126;22;20482;-75
2022/11/06 01:57:37;;;;;;;159.70;40.50;;;5.00;99.90;;;3.64;100.00;97726.94;5012272;28;20451;-75
2022/11/06 02:00:06;;;;;;;178.35;42.25;;;4.90;99.90;;;3.61;100.00;97729.97;5029767;28;20866;-76
2022/11/06 02:02:32;;;;;;;183.73;42.10;;;4.90;99.90;;;3.57;100.00;97733.97;5029743;28;20492;-76
2022/11/06 02:04:59;;;;;;;168.70;41.22;;;4.90;99.90;;;3.54;100.00;97731.72;5010831;28;20439;-76
2022/11/06 02:07:25;;;;;;;163.85;40.85;;;4.80;99.90;;;3.50;100.00;97723.47;5009989;28;20402;-76
2022/11/06 02:09:51;;;;;;;187.30;42.80;;;4.80;99.90;;;3.48;100.00;97726.28;5010193;28;20415;-76
2022/11/06 02:12:30;;;;;;;196.45;43.83;;;4.80;99.90;;;3.45;100.00;97724.09;5010101;28;20488;-76
2022/11/06 02:15:03;;;;;;;120.40;36.78;;;4.80;99.90;;;3.47;100.00;97713.41;5008947;28;25133;-76
2022/11/06 02:17:46;;;;;;;166.57;41.30;;;4.70;99.90;;;3.42;100.00;97718.44;5009886;28;20439;-76
2022/11/06 02:20:21;;;;;;;176.93;41.92;;;4.70;99.90;;;3.40;100.00;97721.25;5010064;28;20488;-76
2022/11/06 02:23:35;;;;;;;169.48;41.95;;;4.70;99.90;;;3.38;100.00;97719.84;5012758;28;20910;-75
2022/11/06 02:26:20;;;;;;;182.50;45.67;;;4.70;99.90;;;3.45;100.00;97721.47;4990344;28;25124;-76
2022/11/06 02:28:54;;;;;;;202.90;46.45;;;4.70;99.90;;;3.41;100.00;97711.59;5013792;28;20881;-76
2022/11/06 02:31:25;;;;;;;200.17;44.97;;;4.70;99.90;;;3.38;100.00;97712.78;5014154;28;20902;-76
2022/11/06 02:33:58;;;;;;;216.15;46.60;;;4.70;99.90;;;3.33;100.00;97707.34;5012783;28;20509;-76
2022/11/06 02:36:29;;;;;;;220.20;48.67;;;4.70;99.90;;;3.31;100.00;97705.91;5013530;28;20867;-76
2022/11/06 02:39:00;;;;;;;201.90;43.63;;;4.60;99.90;;;3.25;100.00;97697.03;5013745;28;20438;-76
2022/11/06 02:41:31;;;;;;;185.52;42.40;;;4.60;99.90;;;3.21;100.00;97695.84;5013469;28;20466;-76
2022/11/06 02:44:01;;;;;;;214.02;46.20;;;4.50;99.90;;;3.19;100.00;97687.38;5012854;28;20411;-76
2022/11/06 02:46:33;;;;;;;199.38;44.72;;;4.50;99.90;;;3.15;100.00;97682.75;5013379;28;20774;-76
2022/11/06 02:49:03;;;;;;;206.80;48.77;;;4.50;99.90;;;3.16;100.00;97676.50;5013581;28;20407;-76
2022/11/06 02:51:32;;;;;;;192.50;43.53;;;4.50;99.90;;;3.07;100.00;97668.03;5013491;28;20404;-76
2022/11/06 02:54:04;;;;;;;217.07;47.10;;;4.40;99.90;;;3.02;100.00;97665.19;5012291;28;20483;-76
2022/11/06 02:56:36;;;;;;;187.35;39.83;;;4.40;99.90;;;2.97;100.00;97662.34;5013259;28;20994;-76
2022/11/06 02:59:08;;;;;;;209.57;43.40;;;4.30;99.90;;;2.94;100.00;97657.50;5013358;28;20514;-76
2022/11/06 03:01:41;;;;;;;176.20;40.90;;;4.30;99.90;;;2.92;100.00;97649.88;5013247;28;20435;-76
2022/11/06 03:04:16;;;;;;;184.82;42.00;;;4.30;99.90;;;2.93;100.00;97654.09;5012367;28;20882;-76
2022/11/06 03:06:48;;;;;;;177.93;41.20;;;4.30;99.90;;;2.91;100.00;97648.25;5013014;28;20519;-76
2022/11/06 03:09:20;;;;;;;147.52;38.92;;;4.30;99.90;;;2.89;100.00;97645.03;5013171;28;20431;-76
2022/11/06 03:11:52;;;;;;;182.02;43.92;;;4.20;99.90;;;2.87;100.00;97636.56;5012972;28;20459;-76
2022/11/06 03:14:28;;;;;;;171.95;41.17;;;4.20;99.90;;;2.85;100.00;97635.16;5012189;28;20401;-76
2022/11/06 03:16:59;;;;;;;156.00;39.95;;;4.20;99.90;;;2.83;100.00;97637.97;5013033;28;20910;-76
2022/11/06 03:19:29;;;;;;;178.73;42.17;;;4.20;99.90;;;2.85;100.00;97640.41;5013067;28;20411;-76
2022/11/06 03:22:02;;;;;;;146.05;37.75;;;4.20;99.90;;;2.85;100.00;97641.22;5012764;28;20920;-76
2022/11/06 03:24:39;;;;;;;186.07;43.67;;;4.20;99.90;;;2.87;100.00;97641.78;5011915;28;20424;-76
2022/11/06 03:27:13;;;;;;;208.68;47.20;;;4.20;99.90;;;2.93;100.00;97640.22;5012765;28;20388;-76
2022/11/06 03:29:44;;;;;;;182.77;44.70;;;4.20;99.90;;;2.91;100.00;97634.38;5012895;28;20490;-76
2022/11/06 03:32:17;;;;;;;196.32;47.38;;;4.20;99.90;;;2.94;100.00;97632.16;5012102;28;20891;-76
2022/11/06 03:34:49;;;;;;;165.65;44.50;;;4.20;99.90;;;2.94;100.00;97631.34;5011614;28;20385;-76
2022/11/06 03:37:22;;;;;;;184.93;46.63;;;4.20;99.90;;;2.96;100.00;97637.22;5012679;28;20413;-77
2022/11/06 03:39:54;;;;;;;195.27;46.43;;;4.20;99.90;;;3.00;100.00;97625.38;5012595;28;20483;-76
2022/11/06 03:42:24;;;;;;;193.45;46.85;;;4.20;99.90;;;2.97;100.00;97625.75;5012586;28;20479;-76
2022/11/06 03:44:56;;;;;;;179.32;44.67;;;4.20;99.90;;;2.96;100.00;97619.72;5011456;28;20432;-76
2022/11/06 03:47:27;;;;;;;160.02;43.25;;;4.30;99.90;;;2.95;100.00;97614.66;5012452;28;20851;-76
2022/11/06 03:49:59;;;;;;;184.93;46.72;;;4.30;99.90;;;2.95;100.00;97612.88;5012559;28;20749;-76
2022/11/06 03:52:31;;;;;;;174.23;45.00;;;4.20;99.90;;;2.97;100.00;97615.28;5012280;28;20417;-76
2022/11/06 03:55:04;;;;;;;169.50;45.17;;;4.20;99.90;;;2.94;100.00;97620.91;4993694;28;20423;-76
2022/11/06 03:57:38;;;;;;;179.57;46.42;;;4.20;99.90;;;2.91;100.00;97618.69;5012223;28;20394;-76
2022/11/06 04:00:08;;;;;;;184.52;47.47;;;4.20;99.90;;;2.92;100.00;97617.69;5011988;28;25098;-76
2022/11/06 04:02:39;;;;;;;172.70;44.23;;;4.20;99.90;;;2.88;100.00;97621.69;5012110;28;20445;-76
2022/11/06 04:05:12;;;;;;;186.45;47.15;;;4.10;99.90;;;2.88;100.00;97606.00;4994325;28;20476;-75
2022/11/06 04:13:56;;;;;;;176.15;47.08;;;4.10;99.90;;;2.86;100.00;97605.38;5012302;28;20411;-76
2022/11/06 04:16:07;;;;;;;167.63;44.83;;;4.10;99.90;;;2.77;100.00;97589.09;5011977;28;20487;-76
2022/11/06 04:18:33;;;;;;;192.48;49.58;;;4.10;99.90;;;2.78;100.00;97592.53;5012044;28;20405;-76
2022/11/06 04:21:21;;;;;;;180.70;46.80;;;4.00;99.90;;;2.71;100.00;97582.00;5012002;28;20504;-76
2022/11/06 04:27:05;;;;;;;173.95;48.17;;;4.00;99.90;;;2.65;100.00;97582.81;5011936;28;20819;-75
2022/11/06 04:29:47;;;;;;;150.93;45.72;;;3.90;99.90;;;2.65;100.00;97583.63;5011803;28;20443;-75
2022/11/06 04:32:23;;;;;;;174.05;47.25;;;4.00;99.90;;;2.62;100.00;97573.56;5011714;28;20410;-76
2022/11/06 04:35:02;;;;;;;175.18;47.65;;;3.90;99.90;;;2.63;100.00;97582.22;5010682;28;20761;-76
2022/11/06 04:37:39;;;;;;;203.37;52.80;;;4.00;99.90;;;2.69;100.00;97571.78;5011610;28;20563;-76
2022/11/06 04:40:10;;;;;;;183.45;49.90;;;4.00;99.90;;;2.66;100.00;97573.97;5011583;28;20882;-75
2022/11/06 04:42:44;;;;;;;188.88;49.78;;;3.90;99.90;;;2.61;100.00;97561.50;5011452;28;20451;-75
2022/11/06 04:45:22;;;;;;;149.10;43.55;;;3.90;99.90;;;2.56;100.00;97563.88;5010678;28;20427;-75
2022/11/06 04:47:51;;;;;;;132.80;39.75;;;3.80;99.90;;;2.53;100.00;97579.97;5011444;28;20472;-75
2022/11/06 04:50:19;;;;;;;172.00;45.97;;;3.90;99.90;;;2.55;100.00;97561.47;5011398;28;20432;-75
2022/11/06 04:52:46;;;;;;;174.25;43.22;;;3.90;99.90;;;2.50;100.00;97562.06;5010548;28;20485;-76
2022/11/06 04:55:12;;;;;;;144.63;40.90;;;3.90;99.90;;;2.50;100.00;97554.22;5011268;28;20503;-75
2022/11/06 04:57:38;;;;;;;157.63;42.90;;;3.80;99.90;;;2.47;100.00;97544.16;5011475;28;20405;-76
2022/11/06 05:00:06;;;;;;;180.48;44.40;;;3.80;99.90;;;2.49;100.00;97546.56;5011267;28;20445;-76
2022/11/06 05:02:32;;;;;;;153.15;41.75;;;3.80;99.90;;;2.45;100.00;97556.63;5011019;28;20424;-75
2022/11/06 05:04:59;;;;;;;179.97;44.27;;;3.80;99.90;;;2.41;100.00;97558.00;5010075;28;20936;-76
2022/11/06 05:07:25;;;;;;;162.77;42.05;;;3.80;99.90;;;2.36;100.00;97563.00;5010835;28;20412;-76
2022/11/06 05:09:51;;;;;;;174.70;42.93;;;3.70;99.90;;;2.33;100.00;97566.03;5011172;28;20810;-76
2022/11/06 05:12:17;;;;;;;138.82;39.08;;;3.70;99.90;;;2.31;100.00;97574.03;5011203;28;20436;-76
2022/11/06 05:14:43;;;;;;;172.73;43.15;;;3.70;99.90;;;2.28;100.00;97579.66;5010122;28;20405;-75
2022/11/06 05:17:08;;;;;;;138.80;40.05;;;3.70;99.90;;;2.27;100.00;97583.25;5011040;28;20492;-76
2022/11/06 05:19:34;;;;;;;183.50;47.08;;;3.60;99.90;;;2.33;100.00;97572.03;5011137;28;20945;-77
2022/11/06 05:24:46;;;;;;;158.32;41.50;;;3.60;99.90;;;2.28;100.00;97568.38;5009978;28;20945;-76
2022/11/06 05:27:12;;;;;;;139.55;39.90;;;3.60;99.90;;;2.34;100.00;97571.03;5010747;28;20412;-75
2022/11/06 05:29:38;;;;;;;159.55;41.63;;;3.60;99.90;;;2.35;100.00;97569.22;5010885;28;20473;-76
2022/11/06 05:32:04;;;;;;;191.88;46.90;;;3.70;99.90;;;2.39;100.00;97575.69;5010596;28;20956;-75
2022/11/06 05:34:30;;;;;;;150.45;40.40;;;3.70;99.90;;;2.36;100.00;97578.69;5009643;28;20538;-75
2022/11/06 05:36:56;;;;;;;167.73;42.57;;;3.70;99.90;;;2.41;100.00;97584.13;5010646;28;20394;-75
2022/11/06 05:39:23;;;;;;;177.10;41.67;;;3.70;99.90;;;2.39;100.00;97573.06;5010605;28;20405;-75
2022/11/06 05:41:49;;;;;;;190.45;45.25;;;3.70;99.90;;;2.42;100.00;97564.84;5010364;28;20416;-75
2022/11/06 05:44:15;;;;;;;143.70;39.78;;;3.70;99.90;;;2.42;100.00;97557.00;5009645;28;20502;-75
2022/11/06 05:46:41;;;;;;;171.90;41.30;;;3.70;99.90;;;2.42;100.00;97557.00;5010388;28;20546;-76
2022/11/06 05:49:08;;;;;;;161.60;41.00;;;3.70;99.90;;;2.44;100.00;97562.84;5010313;28;20939;-76
2022/11/06 05:51:34;;;;;;;163.60;38.42;;;3.70;99.90;;;2.41;100.00;97557.19;5010367;28;20440;-76
2022/11/06 05:54:00;;;;;;;126.25;34.67;;;3.70;99.90;;;2.36;100.00;97560.38;5009187;28;20868;-76
2022/11/06 05:56:28;;;;;;;137.93;34.57;;;3.70;99.90;;;2.33;100.00;97568.63;5009934;28;20871;-76
2022/11/06 05:58:53;;;;;;;129.35;35.30;;;3.70;99.90;;;2.31;100.00;97575.84;5010242;28;20411;-76
2022/11/06 06:01:19;;;;;;;179.38;41.38;;;3.70;99.90;;;2.30;100.00;97577.66;5010227;28;20404;-76
2022/11/06 06:03:45;;;;;;;192.70;43.72;;;3.60;99.90;;;2.25;100.00;97577.44;5009207;28;20413;-76
2022/11/06 06:06:11;;;;;;;163.20;40.80;;;3.60;99.90;;;2.23;100.00;97576.00;5010089;28;20431;-76
2022/11/06 06:08:37;;;;;;;141.57;36.60;;;3.60;99.90;;;2.19;100.00;97559.09;5010127;28;20401;-76
2022/11/06 06:11:06;;;;;;;180.30;39.42;;;3.50;99.90;;;2.16;100.00;97565.53;5010176;28;20472;-76
2022/11/06 06:13:36;;;;;;;176.35;40.35;;;3.50;99.90;;;2.15;100.00;97570.94;5009143;28;20454;-76
2022/11/06 06:16:02;;;;;;;135.80;37.28;;;3.50;99.90;;;2.18;100.00;97578.41;5010040;28;20417;-76
2022/11/06 06:18:28;;;;;;;165.32;42.13;;;3.50;99.90;;;2.26;100.00;97580.81;5010396;28;20504;-76
2022/11/06 06:20:56;;;;;;;164.05;42.42;;;3.60;99.90;;;2.28;100.00;97573.63;5010093;28;20825;-76
2022/11/06 06:23:22;;;;;;;172.40;42.45;;;3.60;99.90;;;2.36;100.00;97577.88;5009195;28;20455;-76
2022/11/06 06:25:48;;;;;;;153.90;40.25;;;3.60;99.90;;;2.33;100.00;97572.03;5009822;28;20444;-76
2022/11/06 06:28:14;;;;;;;141.52;38.13;;;3.60;99.90;;;2.34;100.00;97571.03;5009993;28;20408;-76
2022/11/06 06:30:41;;;;;;;150.30;39.88;;;3.60;99.90;;;2.34;100.00;97565.81;5010011;28;20401;-76
2022/11/06 06:33:07;;;;;;;138.70;35.67;;;3.70;99.90;;;2.34;100.00;97557.97;4991410;28;20451;-77
2022/11/06 06:35:33;;;;;;;135.50;37.43;;;3.60;99.90;;;2.34;100.00;97552.75;5009408;28;20401;-77
2022/11/06 06:37:59;;;;;;;119.60;34.83;;;3.70;99.90;;;2.34;100.00;97551.94;5009938;28;20455;-77
2022/11/06 06:40:26;;;;;;;172.38;43.38;;;3.60;99.90;;;2.36;100.00;97562.19;4993031;28;20823;-78
2022/11/06 06:42:55;;;;;;;119.60;35.23;;;3.70;99.90;;;2.35;100.00;97564.00;4987976;28;20414;-76
2022/11/06 06:45:20;;;;;;;129.75;37.53;;;3.70;99.90;;;2.36;100.00;97570.03;4988478;28;20797;-78
2022/11/06 06:47:48;;;;;;;149.32;38.08;;;3.70;99.90;;;2.35;100.00;97553.56;4988821;28;20452;-81
2022/11/06 06:50:14;;;;;;;153.07;39.83;;;3.70;99.90;;;2.34;100.00;97547.53;4988807;28;20403;-81
2022/11/06 06:52:40;;;;;;;139.47;36.63;;;3.70;99.90;;;2.33;100.00;97552.97;4988225;28;20399;-72
2022/11/06 06:55:06;;;;;;;142.30;37.40;;;3.70;99.90;;;2.31;100.00;97542.69;4987971;28;20497;-79
2022/11/06 06:57:32;;;;;;;165.18;43.22;;;3.60;99.90;;;2.33;100.00;97543.28;4989467;28;20410;-76
2022/11/06 06:59:58;;;;;;;133.10;37.45;;;3.60;99.90;;;2.28;100.00;97539.66;4990211;28;20413;-77
2022/11/06 07:02:24;;;;;;;180.52;42.35;;;3.60;99.90;;;2.27;100.00;97535.44;4990025;28;20427;-76
2022/11/06 07:04:51;;;;;;;155.32;37.95;;;3.60;99.90;;;2.24;100.00;97533.22;4989079;28;20453;-75
2022/11/06 07:07:17;;;;;;;125.68;33.80;;;3.60;99.90;;;2.23;100.00;97521.16;4991342;28;20411;-77
2022/11/06 07:09:43;;;;;;;133.13;34.28;;;3.60;99.90;;;2.25;100.00;97513.94;4993706;28;20827;-76
2022/11/06 07:12:09;;;;;;;157.07;39.13;;;3.60;99.90;;;2.25;100.00;97512.16;4993531;28;20437;-76
2022/11/06 07:14:35;;;;;;;131.23;39.63;;;3.60;99.90;;;2.26;100.00;97513.72;4992543;28;20759;-76
2022/11/06 07:17:01;;;;;;;151.25;42.88;;;3.60;99.90;;;2.27;100.00;97507.50;4993605;28;20407;-78
2022/11/06 07:19:27;;;;;;;164.80;46.60;;;3.60;99.90;;;2.30;100.00;97509.75;4993416;28;20417;-77
2022/11/06 07:21:54;;;;;;;141.73;40.50;;;3.60;99.90;;;2.31;100.00;97493.06;4993337;28;20784;-77
2022/11/06 07:24:20;;;;;;;168.23;44.72;;;3.60;99.90;;;2.34;100.00;97490.06;4992431;28;20411;-76
2022/11/06 07:26:46;;;;;;;156.18;45.67;;;3.60;99.90;;;2.36;100.00;97489.06;4991777;28;20410;-76
2022/11/06 07:29:12;;;;;;;160.30;56.85;;;3.70;99.90;;;2.37;100.00;97483.66;4975897;28;20418;-76
2022/11/06 07:31:38;;;;;;;172.30;47.75;;;3.70;99.90;;;2.41;100.00;97477.00;4993275;28;20410;-76
2022/11/06 07:34:04;;;;;;;142.27;44.65;;;3.70;99.90;;;2.49;100.00;97469.00;4992403;28;20414;-77
2022/11/06 07:36:31;;;;;;;134.00;42.27;;;3.70;99.90;;;2.58;100.00;97473.03;4993098;28;20472;-77
2022/11/06 07:38:58;;;;;;;164.32;45.65;;;3.80;99.90;;;2.63;100.00;97475.84;4993191;28;20410;-77
2022/11/06 07:41:24;;;;;;;168.68;48.13;;;3.90;99.90;;;2.70;100.00;97471.47;4993173;28;20414;-76
2022/11/06 07:43:50;;;;;;;131.02;42.72;;;3.90;99.90;;;2.64;100.00;97466.22;4974547;28;20465;-76
2022/11/06 07:46:16;;;;;;;168.98;51.50;;;3.90;99.90;;;2.69;100.00;97466.44;4992926;28;20434;-76
2022/11/06 07:48:42;;;;;;;175.80;49.35;;;3.90;99.90;;;2.67;100.00;97460.59;4992941;28;21245;-76
2022/11/06 07:51:10;;;;;;;130.10;43.50;;;3.90;99.90;;;2.73;100.00;97458.00;4992808;28;20963;-76
2022/11/06 07:53:37;;;;;;;150.45;45.38;;;4.00;99.90;;;2.73;100.00;97451.97;5015442;22;21094;-69
2022/11/06 07:56:07;;;;;;;166.18;46.55;;;4.00;99.90;;;2.78;100.00;97446.94;5071846;28;20885;-69
2022/11/06 07:58:33;;;;;;;170.40;48.38;;;4.00;99.90;;;2.74;100.00;97443.13;5071799;28;20402;-70
2022/11/06 08:00:59;;;;;;;160.47;44.63;;;4.00;99.90;;;2.76;100.00;97428.03;5071906;28;20415;-70
2022/11/06 08:03:28;;;;;;;154.15;46.58;;;4.00;99.90;;;2.84;100.00;97425.22;5070767;28;20420;-70
2022/11/06 08:05:55;;;;;;;158.70;47.63;;;4.10;99.90;;;2.93;100.00;97424.00;5071585;28;20483;-70
2022/11/06 08:08:21;;;;;;;147.13;44.58;;;4.20;99.90;;;3.00;100.00;97410.97;5071619;28;20407;-70
2022/11/06 08:10:46;;;;;;;168.90;47.55;;;4.20;99.90;;;3.02;100.00;97417.56;5071722;28;20781;-70
2022/11/06 08:13:16;;;;;;;128.90;41.83;;;4.30;99.90;;;3.09;100.00;97415.75;5070816;28;20402;-70
2022/11/06 08:15:42;;;;;;;138.05;42.78;;;4.30;99.90;;;3.16;100.00;97413.13;5065179;28;20797;-70
2022/11/06 08:18:10;;;;;;;139.20;42.58;;;4.30;99.90;;;3.23;100.00;97408.72;5079682;28;20909;-69
2022/11/06 08:20:37;;;;;;;140.95;42.78;;;4.40;99.90;;;3.24;100.00;97402.47;5071463;28;20453;-70
2022/11/06 08:23:07;;;;;;;166.27;45.95;;;4.40;99.90;;;3.28;100.00;97410.72;5070505;28;20411;-71
2022/11/06 08:25:33;;;;;;;170.55;45.85;;;4.50;99.90;;;3.42;100.00;97412.28;5071278;28;20431;-70
2022/11/06 08:28:01;;;;;;;166.55;45.90;;;4.60;99.90;;;3.40;100.00;97415.09;5071348;28;20754;-70
2022/11/06 08:30:29;;;;;;;151.30;42.83;;;4.60;99.90;;;3.49;100.00;97413.06;5071211;28;20881;-70
2022/11/06 08:33:00;;;;;;;153.25;43.20;;;4.70;99.90;;;3.66;100.00;97419.47;5073478;28;20421;-70
2022/11/06 08:35:26;;;;;;;175.73;45.50;;;4.80;99.90;;;3.74;100.00;97423.69;5082621;28;20402;-69
2022/11/06 08:37:52;;;;;;;152.65;43.40;;;4.90;99.90;;;4.01;100.00;97417.31;5091351;28;20801;-70
2022/11/06 08:40:19;;;;;;;165.40;43.53;;;5.10;99.90;;;4.12;100.00;97419.31;5073374;28;20421;-71
2022/11/06 08:42:45;;;;;;;126.85;36.47;;;5.20;99.90;;;4.25;100.00;97413.97;5090564;28;20496;-70
2022/11/06 08:45:11;;;;;;;134.10;40.20;;;5.30;99.90;;;4.14;100.00;97411.22;5073010;28;20945;-70
2022/11/06 08:47:39;;;;;;;143.02;39.25;;;5.30;99.90;;;4.20;100.00;97407.78;5091213;28;20436;-70
2022/11/06 08:50:06;;;;;;;155.60;39.78;;;5.30;99.90;;;4.39;100.00;97412.09;5091053;28;20392;-71
2022/11/06 08:52:32;;;;;;;140.93;37.77;;;5.50;99.90;;;4.29;100.00;97416.97;5091003;28;20941;-71
2022/11/06 08:54:58;;;;;;;119.10;33.25;;;5.50;99.90;;;4.51;100.00;97409.63;5060805;28;20514;-71
2022/11/06 08:57:24;;;;;;;138.70;36.97;;;5.50;99.90;;;4.46;100.00;97405.00;5064476;28;20925;-71
2022/11/06 08:59:50;;;;;;;134.63;36.30;;;5.60;99.90;;;4.57;100.00;97401.69;5063534;28;20912;-70
2022/11/06 09:02:16;;;;;;;122.93;35.60;;;5.70;99.90;;;4.52;100.00;97398.09;5069642;28;20424;-70
2022/11/06 09:04:43;;;;;;;129.55;35.03;;;5.60;99.90;;;4.66;100.00;97395.16;5073588;28;20853;-70
2022/11/06 09:07:09;;;;;;;123.22;33.25;;;5.70;99.90;;;4.52;100.00;97398.88;5073434;28;20398;-70
2022/11/06 09:09:35;;;;;;;136.43;33.63;;;5.70;99.90;;;4.60;100.00;97396.00;5068060;28;20397;-70
2022/11/06 09:12:02;;;;;;;108.73;29.50;;;5.70;99.90;;;4.91;100.00;97391.75;5068518;28;20403;-70
2022/11/06 09:14:28;;;;;;;97.15;28.05;;;5.90;99.90;;;5.17;100.00;97401.22;5067689;28;20391;-70
2022/11/06 09:16:56;;;;;;;102.47;29.33;;;6.10;99.90;;;5.22;100.00;97396.91;5068130;28;21193;-70
2022/11/06 09:19:23;;;;;;;107.60;28.98;;;6.20;99.90;;;5.43;100.00;97396.50;5068953;28;20391;-70
2022/11/06 09:21:50;;;;;;;75.57;24.10;;;6.50;99.90;;;5.63;100.00;97382.38;5068099;28;20465;-70
2022/11/06 09:24:16;;;;;;;64.13;20.88;;;6.60;99.90;;;5.91;100.00;97398.44;5069600;28;20399;-70
2022/11/06 09:26:42;;;;;;;65.90;24.45;;;6.80;99.90;;;6.48;100.00;97419.91;5070549;28;20434;-70
2022/11/06 09:29:08;;;;;;;91.72;29.63;;;7.40;99.90;;;6.61;100.00;97423.16;5070191;28;20483;-70
2022/11/06 09:31:34;;;;;;;97.65;30.50;;;7.70;99.90;;;6.75;100.00;97428.25;5069868;28;20788;-70
2022/11/06 09:33:59;;;;;;;95.57;28.38;;;7.80;99.90;;;6.77;100.00;97423.53;5069300;28;20825;-71
2022/11/06 09:36:25;;;;;;;64.88;22.52;;;7.90;99.90;;;6.80;100.00;97415.19;5070101;28;20407;-70
2022/11/06 09:38:53;;;;;;;41.07;17.83;;;7.90;99.90;;;7.15;100.00;97404.69;5070161;28;20491;-70
2022/11/06 09:41:31;;;;;;;34.05;15.18;;;8.00;99.90;;;7.16;100.00;97388.69;5070212;28;20421;-70
2022/11/06 09:44:16;;;;;;;26.77;13.30;;;8.20;99.90;;;7.59;100.00;97403.34;5069268;28;20403;-70
2022/11/06 09:46:44;;;;;;;28.30;13.73;;;8.40;99.90;;;7.66;100.00;97398.75;5052002;28;20411;-70
2022/11/06 09:49:19;;;;;;;24.38;13.00;;;8.70;99.90;;;7.86;100.00;97387.81;5069818;28;20400;-70
2022/11/06 09:51:51;;;;;;;18.27;9.67;;;8.70;99.90;;;7.79;100.00;97374.75;5070072;28;20411;-70
2022/11/06 09:54:24;;;;;;;16.80;9.73;;;8.60;99.90;;;7.83;100.00;97375.09;5068941;28;20430;-70
2022/11/06 09:56:59;;;;;;;16.63;9.68;;;8.70;99.90;;;8.12;100.00;97374.06;5069979;28;20407;-71
2022/11/06 09:59:26;;;;;;;15.03;9.07;;;8.90;99.90;;;8.11;100.00;97356.69;5070027;28;20430;-70
2022/11/06 10:01:55;;;;;;;13.77;8.40;;;9.00;99.90;;;8.34;100.00;97355.81;5069711;28;20891;-70
2022/11/06 10:04:34;;;;;;;11.52;7.57;;;9.20;99.90;;;8.68;100.00;97348.72;5069234;28;20494;-70
2022/11/06 10:07:00;;;;;;;11.80;8.35;;;9.50;99.90;;;8.68;100.00;97340.78;5069789;28;20761;-70
2022/11/06 10:09:28;;;;;;;9.30;6.63;;;9.70;99.90;;;9.02;100.00;97349.50;5069679;28;20408;-71
2022/11/06 10:12:09;;;;;;;12.67;7.77;;;9.90;99.90;;;8.82;100.00;97348.16;5069712;28;20415;-70
2022/11/06 10:14:55;;;;;;;9.57;6.20;;;10.00;99.90;;;8.92;100.00;97350.97;5068814;28;20487;-70
2022/11/06 10:17:38;;;;;;;9.00;6.47;;;9.90;99.90;;;8.60;100.00;97342.00;5069737;28;20433;-71
2022/11/06 10:20:16;;;;;;;9.38;6.18;;;9.60;99.90;;;8.46;100.00;97343.34;5069425;28;20912;-70
2022/11/06 10:22:53;;;;;;;9.20;6.35;;;9.70;99.90;;;8.69;100.00;97332.66;5058494;28;20471;-69
2022/11/06 10:25:23;;;;;;;9.80;6.57;;;9.70;99.90;;;8.63;100.00;97324.88;5066474;28;20400;-70
2022/11/06 10:28:01;;;;;;;8.57;6.15;;;9.70;99.90;;;8.75;100.00;97315.03;5058088;28;20486;-71
2022/11/06 10:30:39;;;;;;;9.02;6.28;;;9.70;99.90;;;8.58;100.00;97315.03;5075003;28;20420;-71